createdAt,value
2019-02-19T00:04:51.177Z,27.10
2019-02-19T00:09:56.319Z,26.85
2019-02-19T00:15:08.013Z,26.25
2019-02-19T00:20:08.553Z,30.30
2019-02-19T00:25:13.856Z,27.20
2019-02-19T00:30:19.305Z,31.00
2019-02-19T00:35:24.423Z,38.83
2019-02-19T00:40:29.552Z,41.67
2019-02-19T00:45:34.711Z,35.10
2019-02-19T00:50:39.837Z,35.20
2019-02-19T00:55:44.931Z,31.10
2019-02-19T01:00:49.959Z,28.45
2019-02-19T01:05:55.105Z,27.45
2019-02-19T01:11:00.165Z,26.77
2019-02-19T01:16:05.533Z,28.27
2019-02-19T01:21:10.777Z,26.57
2019-02-19T01:26:15.878Z,32.37
2019-02-19T01:31:21.003Z,26.93
2019-02-19T01:36:26.145Z,33.60
2019-02-19T01:41:31.275Z,33.83
2019-02-19T01:46:36.296Z,27.13
2019-02-19T01:51:41.363Z,32.08
2019-02-19T01:56:46.801Z,31.17
2019-02-19T02:01:51.900Z,30.60
2019-02-19T02:06:56.983Z,26.73
2019-02-19T02:12:02.011Z,28.02
2019-02-19T02:17:08.162Z,27.30
2019-02-19T02:22:13.169Z,29.40
2019-02-19T02:27:18.558Z,27.20
2019-02-19T02:32:24.154Z,30.50
2019-02-19T02:37:29.222Z,36.30
2019-02-19T02:42:34.407Z,36.98
2019-02-19T02:47:39.555Z,30.40
2019-02-19T02:52:44.658Z,32.42
2019-02-19T02:57:49.679Z,29.13
2019-02-19T03:02:54.739Z,29.20
2019-02-19T03:08:03.523Z,34.00
2019-02-19T03:13:15.003Z,36.13
2019-02-19T03:18:20.068Z,30.92
2019-02-19T03:23:25.121Z,37.10
2019-02-19T03:28:31.153Z,37.70
2019-02-19T03:33:36.193Z,35.43
2019-02-19T03:38:41.549Z,36.60
2019-02-19T03:43:47.049Z,31.20
2019-02-19T03:48:52.158Z,45.55
2019-02-19T03:53:57.229Z,36.48
2019-02-19T03:59:02.318Z,36.00
2019-02-19T04:04:07.331Z,35.73
2019-02-19T04:09:12.432Z,34.27
2019-02-19T04:14:26.621Z,32.23
2019-02-19T04:19:31.784Z,33.60
2019-02-19T04:24:37.473Z,32.30
2019-02-19T04:29:42.603Z,36.00
2019-02-19T04:34:47.637Z,35.65
2019-02-19T04:39:52.739Z,40.73
2019-02-19T04:44:58.207Z,31.48
2019-02-19T04:50:05.268Z,32.10
2019-02-19T04:55:10.300Z,34.98
2019-02-19T05:00:15.374Z,35.48
2019-02-19T05:05:20.440Z,34.65
2019-02-19T05:10:25.614Z,32.48
2019-02-19T05:15:30.925Z,33.60
2019-02-19T05:20:39.141Z,36.48
2019-02-19T05:25:44.285Z,36.08
2019-02-19T05:30:49.743Z,39.23
2019-02-19T05:35:54.907Z,37.43
2019-02-19T05:40:59.884Z,34.50
2019-02-19T05:46:05.111Z,45.90
2019-02-19T05:51:10.135Z,39.55
2019-02-19T05:56:15.631Z,35.75
2019-02-19T06:01:21.654Z,36.03
2019-02-19T06:06:26.799Z,33.83
2019-02-19T06:11:32.703Z,31.40
2019-02-19T06:16:38.085Z,30.50
2019-02-19T06:21:43.591Z,26.67
2019-02-19T06:26:49.673Z,31.53
2019-02-19T06:31:59.495Z,30.73
2019-02-19T06:37:05.208Z,30.40
2019-02-19T06:42:11.747Z,37.20
2019-02-19T06:47:18.949Z,34.27
2019-02-19T06:52:24.070Z,29.87
2019-02-19T06:57:29.254Z,32.13
2019-02-19T07:02:50.127Z,35.77
2019-02-19T07:07:55.335Z,37.60
2019-02-19T07:13:00.726Z,36.13
2019-02-19T07:18:05.894Z,35.50
2019-02-19T07:23:11.138Z,35.60
2019-02-19T07:28:16.563Z,37.60
2019-02-19T07:33:21.764Z,36.30
2019-02-19T07:38:27.805Z,37.30
2019-02-19T07:43:32.979Z,35.00
2019-02-19T07:48:39.780Z,32.03
2019-02-19T07:53:54.015Z,32.27
2019-02-19T07:58:59.641Z,30.07
2019-02-19T08:04:05.311Z,32.07
2019-02-19T08:09:12.744Z,32.30
2019-02-19T08:14:17.921Z,34.47
2019-02-19T08:19:23.089Z,31.33
2019-02-19T08:24:28.205Z,35.93
2019-02-19T08:29:33.405Z,33.97
2019-02-19T08:34:38.517Z,36.23
2019-02-19T08:39:43.685Z,30.17
2019-02-19T08:44:49.963Z,28.07
2019-02-19T08:49:55.025Z,31.00
2019-02-19T08:55:00.347Z,25.60
2019-02-19T09:00:07.245Z,25.53
2019-02-19T09:05:13.660Z,23.47
2019-02-19T09:10:18.844Z,24.73
2019-02-19T09:15:23.972Z,24.53
2019-02-19T09:20:29.179Z,25.90
2019-02-19T09:25:35.243Z,21.17
2019-02-19T09:30:40.459Z,22.47
2019-02-19T09:35:45.671Z,23.00
2019-02-19T09:40:50.991Z,20.20
2019-02-19T09:45:56.127Z,21.97
2019-02-19T09:51:01.543Z,21.97
2019-02-19T09:56:06.683Z,19.17
2019-02-19T10:01:11.853Z,18.20
2019-02-19T10:06:17.078Z,18.13
2019-02-19T10:11:22.341Z,18.30
2019-02-19T10:16:28.319Z,17.60
2019-02-19T10:21:33.475Z,18.60
2019-02-19T10:26:40.672Z,21.07
2019-02-19T10:31:46.057Z,20.73
2019-02-19T10:36:51.161Z,19.63
2019-02-19T10:41:56.273Z,20.13
2019-02-19T10:47:01.327Z,20.67
2019-02-19T10:52:06.468Z,20.10
2019-02-19T10:57:11.687Z,20.00
2019-02-19T11:02:16.964Z,20.13
2019-02-19T11:07:22.117Z,20.37
2019-02-19T11:12:27.249Z,24.30
2019-02-19T11:17:32.306Z,23.63
2019-02-19T11:22:37.532Z,19.37
2019-02-19T11:27:42.657Z,19.23
2019-02-19T11:32:48.662Z,21.30
2019-02-19T11:37:53.891Z,20.47
2019-02-19T11:42:59.356Z,21.53
2019-02-19T11:48:04.470Z,23.50
2019-02-19T11:53:09.716Z,21.30
2019-02-19T11:58:14.797Z,21.00
2019-02-19T12:03:24.992Z,19.37
2019-02-19T12:08:38.655Z,21.77
2019-02-19T12:13:36.996Z,21.70
2019-02-19T12:18:46.189Z,22.33
2019-02-19T12:23:49.218Z,23.07
2019-02-19T12:28:54.549Z,20.73
2019-02-19T12:34:00.528Z,20.10
2019-02-19T12:39:06.265Z,19.20
2019-02-19T12:44:12.097Z,20.10
2019-02-19T12:49:17.418Z,20.27
2019-02-19T12:54:22.868Z,21.10
2019-02-19T12:59:28.135Z,20.93
2019-02-19T13:04:33.407Z,20.37
2019-02-19T13:09:38.499Z,22.70
2019-02-19T13:14:48.654Z,21.47
2019-02-19T13:19:54.830Z,20.03
2019-02-19T13:24:59.999Z,21.00
2019-02-19T13:30:10.523Z,20.13
2019-02-19T13:35:16.403Z,21.67
2019-02-19T13:40:21.889Z,22.53
2019-02-19T13:45:27.746Z,20.60
2019-02-19T13:50:32.840Z,19.93
2019-02-19T13:55:41.111Z,20.73
2019-02-19T14:00:47.412Z,20.77
2019-02-19T14:05:54.005Z,21.50
2019-02-19T14:10:59.200Z,21.63
2019-02-19T14:16:12.540Z,20.10
2019-02-19T14:21:44.199Z,21.83
2019-02-19T14:27:06.893Z,18.93
2019-02-19T14:32:24.619Z,21.53
2019-02-19T14:37:47.431Z,20.20
2019-02-19T14:43:20.409Z,20.17
2019-02-19T14:48:47.281Z,20.40
2019-02-19T14:54:17.153Z,21.73
2019-02-19T14:59:41.185Z,22.33
2019-02-19T15:05:04.437Z,20.30
2019-02-19T15:10:28.271Z,23.47
2019-02-19T15:15:51.003Z,30.73
2019-02-19T15:21:18.069Z,23.03
2019-02-19T15:26:42.665Z,21.13
2019-02-19T15:32:06.538Z,23.40
2019-02-19T15:37:34.757Z,19.93
2019-02-19T15:42:59.355Z,22.70
2019-02-19T15:48:36.105Z,20.70
2019-02-19T15:54:02.990Z,21.00
2019-02-19T15:59:33.203Z,21.63
2019-02-19T16:04:45.184Z,23.40
2019-02-19T16:10:02.434Z,22.40
2019-02-19T16:15:42.431Z,25.47
2019-02-19T16:20:59.596Z,36.20
2019-02-19T16:26:26.697Z,25.23
2019-02-19T16:31:45.473Z,40.57
2019-02-19T16:37:10.388Z,35.47
2019-02-19T16:42:47.692Z,24.83
2019-02-19T16:48:17.793Z,28.20
2019-02-19T16:53:40.128Z,27.60
2019-02-19T16:58:52.782Z,24.97
2019-02-19T17:04:04.208Z,27.20
2019-02-19T17:09:27.545Z,25.43
2019-02-19T17:14:44.399Z,26.50
2019-02-19T17:20:26.193Z,24.97
2019-02-19T17:25:30.623Z,26.53
2019-02-19T17:31:06.648Z,24.53
2019-02-19T17:36:23.528Z,20.83
2019-02-19T17:41:49.000Z,22.03
2019-02-19T17:47:07.986Z,21.53
2019-02-19T17:52:30.682Z,21.63
2019-02-19T17:57:54.888Z,23.43
2019-02-19T18:03:24.821Z,23.43
2019-02-19T18:08:43.921Z,23.40
2019-02-19T18:14:08.284Z,23.93
2019-02-19T18:19:13.920Z,22.20
2019-02-19T18:24:19.544Z,21.80
2019-02-19T18:29:25.022Z,22.40
2019-02-19T18:34:30.550Z,22.10
2019-02-19T18:39:37.175Z,27.80
2019-02-19T18:44:42.863Z,24.57
2019-02-19T18:49:48.474Z,24.53
2019-02-19T18:54:55.315Z,23.57
2019-02-19T19:00:00.658Z,24.40
2019-02-19T19:05:06.489Z,26.73
2019-02-19T19:10:16.912Z,27.27
2019-02-19T19:15:22.316Z,23.70
2019-02-19T19:20:27.965Z,23.90
2019-02-19T19:25:33.502Z,23.30
2019-02-19T19:30:38.945Z,21.83
2019-02-19T19:35:46.138Z,22.77
2019-02-19T19:40:51.676Z,24.93
2019-02-19T19:45:56.942Z,25.40
2019-02-19T19:51:03.412Z,26.20
2019-02-19T19:56:21.912Z,22.97
2019-02-19T20:01:37.113Z,25.33
2019-02-19T20:06:43.682Z,23.90
2019-02-19T20:11:49.030Z,22.27
2019-02-19T20:16:55.080Z,21.10
2019-02-19T20:22:00.460Z,24.10
2019-02-19T20:27:09.716Z,24.17
2019-02-19T20:32:14.936Z,22.63
2019-02-19T20:37:24.020Z,22.90
2019-02-19T20:42:30.354Z,25.73
2019-02-19T20:47:39.504Z,29.70
2019-02-19T20:52:46.942Z,26.37
2019-02-19T20:57:59.559Z,27.17
2019-02-19T21:03:06.056Z,28.47
2019-02-19T21:08:13.330Z,30.13
2019-02-19T21:13:19.114Z,31.97
2019-02-19T21:18:24.517Z,31.67
2019-02-19T21:23:32.479Z,37.43
2019-02-19T21:28:37.900Z,35.87
2019-02-19T21:33:44.790Z,37.37
2019-02-19T21:38:53.384Z,42.40
2019-02-19T21:44:01.939Z,39.60
2019-02-19T21:49:13.664Z,38.33
2019-02-19T21:54:21.034Z,38.53
2019-02-19T21:59:26.547Z,39.60
2019-02-19T22:04:32.706Z,34.43
2019-02-19T22:09:38.263Z,38.67
2019-02-19T22:14:45.588Z,41.30
2019-02-19T22:19:51.446Z,40.77
2019-02-19T22:25:00.299Z,40.27
2019-02-19T22:30:05.964Z,39.73
2019-02-19T22:35:16.926Z,43.47
2019-02-19T22:40:24.660Z,47.73
2019-02-19T22:45:29.822Z,44.03
2019-02-19T22:50:38.425Z,45.63
2019-02-19T22:56:06.112Z,45.90
2019-02-19T23:01:29.871Z,46.33
2019-02-19T23:06:35.512Z,51.77
2019-02-19T23:11:40.560Z,44.07
2019-02-19T23:16:46.538Z,40.67
2019-02-19T23:21:51.618Z,42.33
2019-02-19T23:26:58.723Z,45.97
2019-02-19T23:32:03.874Z,45.67
2019-02-19T23:37:15.480Z,39.33
2019-02-19T23:42:20.510Z,39.60
2019-02-19T23:47:25.580Z,37.73
2019-02-19T23:52:30.884Z,37.97
2019-02-19T23:57:36.244Z,37.83
